sensor_id;sensor_type;location;lat;lon;timestamp;P1;P2;P0
47741;PMS5003;33504;52.066;6.096;2024-01-15T00:01:45;4;4;
47741;PMS5003;33504;52.066;6.096;2024-01-15T00:04:12;5;3;
47741;PMS5003;33504;52.066;6.096;2024-01-15T00:06:39;4;4;
47741;PMS5003;33504;52.066;6.096;2024-01-15T00:09:06;3;3;
47741;PMS5003;33504;52.066;6.096;2024-01-15T00:11:33;2;2;
47741;PMS5003;33504;52.066;6.096;2024-01-15T00:14:00;5;5;
47741;PMS5003;33504;52.066;6.096;2024-01-15T00:16:27;3;3;
47741;PMS5003;33504;52.066;6.096;2024-01-15T00:18:54;4;3;
47741;PMS5003;33504;52.066;6.096;2024-01-15T00:21:21;2;2;
47741;PMS5003;33504;52.066;6.096;2024-01-15T00:23:48;2;1;
47741;PMS5003;33504;52.066;6.096;2024-01-15T00:26:16;2;2;
47741;PMS5003;33504;52.066;6.096;2024-01-15T00:28:43;2;1;
47741;PMS5003;33504;52.066;6.096;2024-01-15T00:31:10;4;2;
47741;PMS5003;33504;52.066;6.096;2024-01-15T00:33:37;2;1;
47741;PMS5003;33504;52.066;6.096;2024-01-15T00:36:04;2;2;
47741;PMS5003;33504;52.066;6.096;2024-01-15T00:38:31;2;2;
47741;PMS5003;33504;52.066;6.096;2024-01-15T00:40:58;3;2;
47741;PMS5003;33504;52.066;6.096;2024-01-15T00:43:25;1;1;
47741;PMS5003;33504;52.066;6.096;2024-01-15T00:45:52;2;2;
47741;PMS5003;33504;52.066;6.096;2024-01-15T00:48:19;3;2;
47741;PMS5003;33504;52.066;6.096;2024-01-15T00:50:46;2;2;
47741;PMS5003;33504;52.066;6.096;2024-01-15T00:53:13;3;3;
47741;PMS5003;33504;52.066;6.096;2024-01-15T00:55:40;2;2;
47741;PMS5003;33504;52.066;6.096;2024-01-15T00:58:07;3;2;
47741;PMS5003;33504;52.066;6.096;2024-01-15T01:00:34;1;1;
47741;PMS5003;33504;52.066;6.096;2024-01-15T01:03:01;1;1;
47741;PMS5003;33504;52.066;6.096;2024-01-15T01:05:28;2;1;
47741;PMS5003;33504;52.066;6.096;2024-01-15T01:07:55;1;1;
47741;PMS5003;33504;52.066;6.096;2024-01-15T01:10:23;2;2;
47741;PMS5003;33504;52.066;6.096;2024-01-15T01:12:50;5;4;
47741;PMS5003;33504;52.066;6.096;2024-01-15T01:15:17;1;1;
47741;PMS5003;33504;52.066;6.096;2024-01-15T01:17:44;1;1;
47741;PMS5003;33504;52.066;6.096;2024-01-15T01:20:12;1;1;
47741;PMS5003;33504;52.066;6.096;2024-01-15T01:22:38;1;1;
47741;PMS5003;33504;52.066;6.096;2024-01-15T01:25:06;3;1;
47741;PMS5003;33504;52.066;6.096;2024-01-15T01:27:34;1;1;
47741;PMS5003;33504;52.066;6.096;2024-01-15T01:30:02;1;1;
47741;PMS5003;33504;52.066;6.096;2024-01-15T01:32:30;1;1;
47741;PMS5003;33504;52.066;6.096;2024-01-15T01:34:57;2;1;
47741;PMS5003;33504;52.066;6.096;2024-01-15T01:37:24;2;2;
47741;PMS5003;33504;52.066;6.096;2024-01-15T01:39:51;3;2;
47741;PMS5003;33504;52.066;6.096;2024-01-15T01:42:18;2;1;
47741;PMS5003;33504;52.066;6.096;2024-01-15T01:44:45;1;0;
47741;PMS5003;33504;52.066;6.096;2024-01-15T01:47:12;2;2;
47741;PMS5003;33504;52.066;6.096;2024-01-15T01:49:41;3;2;
47741;PMS5003;33504;52.066;6.096;2024-01-15T01:52:09;1;1;
47741;PMS5003;33504;52.066;6.096;2024-01-15T01:54:36;1;1;
47741;PMS5003;33504;52.066;6.096;2024-01-15T01:57:06;1;1;
47741;PMS5003;33504;52.066;6.096;2024-01-15T01:59:35;2;1;
47741;PMS5003;33504;52.066;6.096;2024-01-15T02:02:03;4;2;
47741;PMS5003;33504;52.066;6.096;2024-01-15T02:04:31;2;1;
47741;PMS5003;33504;52.066;6.096;2024-01-15T02:06:58;1;1;
47741;PMS5003;33504;52.066;6.096;2024-01-15T02:09:25;2;1;
47741;PMS5003;33504;52.066;6.096;2024-01-15T02:11:52;2;1;
47741;PMS5003;33504;52.066;6.096;2024-01-15T02:14:19;2;2;
47741;PMS5003;33504;52.066;6.096;2024-01-15T02:16:46;3;2;
47741;PMS5003;33504;52.066;6.096;2024-01-15T02:19:14;4;4;
47741;PMS5003;33504;52.066;6.096;2024-01-15T02:21:41;1;1;
47741;PMS5003;33504;52.066;6.096;2024-01-15T02:24:09;0;0;
47741;PMS5003;33504;52.066;6.096;2024-01-15T02:26:37;4;2;
47741;PMS5003;33504;52.066;6.096;2024-01-15T02:29:04;5;2;
47741;PMS5003;33504;52.066;6.096;2024-01-15T02:31:33;3;2;
47741;PMS5003;33504;52.066;6.096;2024-01-15T02:34:01;1;0;
47741;PMS5003;33504;52.066;6.096;2024-01-15T02:36:28;1;1;
47741;PMS5003;33504;52.066;6.096;2024-01-15T02:38:55;0;0;
47741;PMS5003;33504;52.066;6.096;2024-01-15T02:41:22;3;2;
47741;PMS5003;33504;52.066;6.096;2024-01-15T02:43:49;2;1;
47741;PMS5003;33504;52.066;6.096;2024-01-15T02:46:16;1;1;
47741;PMS5003;33504;52.066;6.096;2024-01-15T02:48:43;2;1;
47741;PMS5003;33504;52.066;6.096;2024-01-15T02:51:10;0;0;
47741;PMS5003;33504;52.066;6.096;2024-01-15T02:53:38;2;1;
47741;PMS5003;33504;52.066;6.096;2024-01-15T02:56:06;1;1;
47741;PMS5003;33504;52.066;6.096;2024-01-15T02:58:34;2;1;
47741;PMS5003;33504;52.066;6.096;2024-01-15T03:01:01;3;1;
47741;PMS5003;33504;52.066;6.096;2024-01-15T03:03:28;0;0;
47741;PMS5003;33504;52.066;6.096;2024-01-15T03:05:55;3;3;
47741;PMS5003;33504;52.066;6.096;2024-01-15T03:08:22;1;1;
47741;PMS5003;33504;52.066;6.096;2024-01-15T03:10:49;4;3;
47741;PMS5003;33504;52.066;6.096;2024-01-15T03:13:16;3;2;
47741;PMS5003;33504;52.066;6.096;2024-01-15T03:15:43;3;3;
47741;PMS5003;33504;52.066;6.096;2024-01-15T03:18:10;2;2;
47741;PMS5003;33504;52.066;6.096;2024-01-15T03:20:37;2;2;
47741;PMS5003;33504;52.066;6.096;2024-01-15T03:23:04;1;0;
47741;PMS5003;33504;52.066;6.096;2024-01-15T03:25:31;2;2;
47741;PMS5003;33504;52.066;6.096;2024-01-15T03:27:58;2;0;
47741;PMS5003;33504;52.066;6.096;2024-01-15T03:30:26;2;1;
47741;PMS5003;33504;52.066;6.096;2024-01-15T03:32:53;1;1;
47741;PMS5003;33504;52.066;6.096;2024-01-15T03:35:20;1;1;
47741;PMS5003;33504;52.066;6.096;2024-01-15T03:37:47;6;5;
47741;PMS5003;33504;52.066;6.096;2024-01-15T03:40:14;1;0;
47741;PMS5003;33504;52.066;6.096;2024-01-15T03:42:41;1;1;
47741;PMS5003;33504;52.066;6.096;2024-01-15T03:45:08;1;1;
47741;PMS5003;33504;52.066;6.096;2024-01-15T03:47:35;2;2;
47741;PMS5003;33504;52.066;6.096;2024-01-15T03:50:02;0;0;
47741;PMS5003;33504;52.066;6.096;2024-01-15T03:52:30;1;0;
47741;PMS5003;33504;52.066;6.096;2024-01-15T03:54:57;2;1;
47741;PMS5003;33504;52.066;6.096;2024-01-15T03:57:24;1;0;
47741;PMS5003;33504;52.066;6.096;2024-01-15T03:59:51;1;0;
47741;PMS5003;33504;52.066;6.096;2024-01-15T04:02:18;1;1;
47741;PMS5003;33504;52.066;6.096;2024-01-15T04:04:45;2;1;
47741;PMS5003;33504;52.066;6.096;2024-01-15T04:07:12;1;1;
47741;PMS5003;33504;52.066;6.096;2024-01-15T04:09:39;3;2;
47741;PMS5003;33504;52.066;6.096;2024-01-15T04:12:06;1;1;
47741;PMS5003;33504;52.066;6.096;2024-01-15T04:14:34;1;1;
47741;PMS5003;33504;52.066;6.096;2024-01-15T04:17:01;1;0;
47741;PMS5003;33504;52.066;6.096;2024-01-15T04:19:28;1;1;
47741;PMS5003;33504;52.066;6.096;2024-01-15T04:21:55;0;0;
47741;PMS5003;33504;52.066;6.096;2024-01-15T04:24:22;5;2;
47741;PMS5003;33504;52.066;6.096;2024-01-15T04:26:49;2;2;
47741;PMS5003;33504;52.066;6.096;2024-01-15T04:29:16;3;2;
47741;PMS5003;33504;52.066;6.096;2024-01-15T04:31:43;2;1;
47741;PMS5003;33504;52.066;6.096;2024-01-15T04:34:10;1;0;
47741;PMS5003;33504;52.066;6.096;2024-01-15T04:36:38;3;2;
47741;PMS5003;33504;52.066;6.096;2024-01-15T04:39:06;1;1;
47741;PMS5003;33504;52.066;6.096;2024-01-15T04:41:34;1;1;
47741;PMS5003;33504;52.066;6.096;2024-01-15T04:44:00;2;1;
47741;PMS5003;33504;52.066;6.096;2024-01-15T04:46:28;3;1;
47741;PMS5003;33504;52.066;6.096;2024-01-15T04:48:55;1;1;
47741;PMS5003;33504;52.066;6.096;2024-01-15T04:51:22;1;0;
47741;PMS5003;33504;52.066;6.096;2024-01-15T04:53:49;1;1;
47741;PMS5003;33504;52.066;6.096;2024-01-15T04:56:16;1;1;
47741;PMS5003;33504;52.066;6.096;2024-01-15T04:58:43;1;0;
47741;PMS5003;33504;52.066;6.096;2024-01-15T05:01:10;1;1;
47741;PMS5003;33504;52.066;6.096;2024-01-15T05:03:37;2;2;
47741;PMS5003;33504;52.066;6.096;2024-01-15T05:06:04;2;2;
47741;PMS5003;33504;52.066;6.096;2024-01-15T05:08:32;1;1;
47741;PMS5003;33504;52.066;6.096;2024-01-15T05:10:59;2;2;
47741;PMS5003;33504;52.066;6.096;2024-01-15T05:13:26;1;1;
47741;PMS5003;33504;52.066;6.096;2024-01-15T05:15:53;2;2;
47741;PMS5003;33504;52.066;6.096;2024-01-15T05:18:20;2;2;
47741;PMS5003;33504;52.066;6.096;2024-01-15T05:20:47;3;2;
47741;PMS5003;33504;52.066;6.096;2024-01-15T05:23:14;3;2;
47741;PMS5003;33504;52.066;6.096;2024-01-15T05:25:41;2;2;
47741;PMS5003;33504;52.066;6.096;2024-01-15T05:28:08;4;3;
47741;PMS5003;33504;52.066;6.096;2024-01-15T05:30:35;4;3;
47741;PMS5003;33504;52.066;6.096;2024-01-15T05:33:02;4;3;
47741;PMS5003;33504;52.066;6.096;2024-01-15T05:35:30;3;2;
47741;PMS5003;33504;52.066;6.096;2024-01-15T05:37:57;2;2;
47741;PMS5003;33504;52.066;6.096;2024-01-15T05:40:24;2;2;
47741;PMS5003;33504;52.066;6.096;2024-01-15T05:42:51;3;3;
47741;PMS5003;33504;52.066;6.096;2024-01-15T05:45:18;2;1;
47741;PMS5003;33504;52.066;6.096;2024-01-15T05:47:45;2;2;
47741;PMS5003;33504;52.066;6.096;2024-01-15T05:50:12;4;2;
47741;PMS5003;33504;52.066;6.096;2024-01-15T05:52:39;3;2;
47741;PMS5003;33504;52.066;6.096;2024-01-15T05:55:06;2;1;
47741;PMS5003;33504;52.066;6.096;2024-01-15T05:57:34;1;1;
47741;PMS5003;33504;52.066;6.096;2024-01-15T06:00:01;2;1;
47741;PMS5003;33504;52.066;6.096;2024-01-15T06:02:28;2;2;
47741;PMS5003;33504;52.066;6.096;2024-01-15T06:04:55;1;1;
47741;PMS5003;33504;52.066;6.096;2024-01-15T06:07:22;2;2;
47741;PMS5003;33504;52.066;6.096;2024-01-15T06:09:49;1;1;
47741;PMS5003;33504;52.066;6.096;2024-01-15T06:12:16;1;1;
47741;PMS5003;33504;52.066;6.096;2024-01-15T06:14:43;2;2;
47741;PMS5003;33504;52.066;6.096;2024-01-15T06:17:10;5;5;
47741;PMS5003;33504;52.066;6.096;2024-01-15T06:19:37;2;2;
47741;PMS5003;33504;52.066;6.096;2024-01-15T06:22:04;3;2;
47741;PMS5003;33504;52.066;6.096;2024-01-15T06:24:31;2;2;
47741;PMS5003;33504;52.066;6.096;2024-01-15T06:26:58;3;3;
47741;PMS5003;33504;52.066;6.096;2024-01-15T06:29:25;4;3;
47741;PMS5003;33504;52.066;6.096;2024-01-15T06:31:53;3;2;
47741;PMS5003;33504;52.066;6.096;2024-01-15T06:34:20;3;2;
47741;PMS5003;33504;52.066;6.096;2024-01-15T06:36:47;3;3;
47741;PMS5003;33504;52.066;6.096;2024-01-15T06:39:14;7;6;
47741;PMS5003;33504;52.066;6.096;2024-01-15T06:41:41;3;3;
47741;PMS5003;33504;52.066;6.096;2024-01-15T06:44:08;4;4;
47741;PMS5003;33504;52.066;6.096;2024-01-15T06:46:35;6;5;
47741;PMS5003;33504;52.066;6.096;2024-01-15T06:49:02;5;4;
47741;PMS5003;33504;52.066;6.096;2024-01-15T06:51:29;5;5;
47741;PMS5003;33504;52.066;6.096;2024-01-15T06:53:56;5;5;
47741;PMS5003;33504;52.066;6.096;2024-01-15T06:56:23;4;4;
47741;PMS5003;33504;52.066;6.096;2024-01-15T06:58:50;4;4;
47741;PMS5003;33504;52.066;6.096;2024-01-15T07:01:18;4;3;
47741;PMS5003;33504;52.066;6.096;2024-01-15T07:03:45;3;3;
47741;PMS5003;33504;52.066;6.096;2024-01-15T07:06:12;3;3;
47741;PMS5003;33504;52.066;6.096;2024-01-15T07:08:39;5;3;
47741;PMS5003;33504;52.066;6.096;2024-01-15T07:11:07;4;4;
47741;PMS5003;33504;52.066;6.096;2024-01-15T07:13:35;6;5;
47741;PMS5003;33504;52.066;6.096;2024-01-15T07:16:03;4;4;
47741;PMS5003;33504;52.066;6.096;2024-01-15T07:18:30;5;4;
47741;PMS5003;33504;52.066;6.096;2024-01-15T07:20:57;5;4;
47741;PMS5003;33504;52.066;6.096;2024-01-15T07:23:24;3;3;
47741;PMS5003;33504;52.066;6.096;2024-01-15T07:25:51;6;5;
47741;PMS5003;33504;52.066;6.096;2024-01-15T07:28:18;4;4;
47741;PMS5003;33504;52.066;6.096;2024-01-15T07:30:46;4;4;
47741;PMS5003;33504;52.066;6.096;2024-01-15T07:33:13;6;6;
47741;PMS5003;33504;52.066;6.096;2024-01-15T07:35:41;4;4;
47741;PMS5003;33504;52.066;6.096;2024-01-15T07:38:08;6;5;
47741;PMS5003;33504;52.066;6.096;2024-01-15T07:40:36;6;6;
47741;PMS5003;33504;52.066;6.096;2024-01-15T07:43:03;7;5;
47741;PMS5003;33504;52.066;6.096;2024-01-15T07:45:31;6;4;
47741;PMS5003;33504;52.066;6.096;2024-01-15T07:47:58;6;5;
47741;PMS5003;33504;52.066;6.096;2024-01-15T07:50:25;6;5;
47741;PMS5003;33504;52.066;6.096;2024-01-15T07:52:52;5;5;
47741;PMS5003;33504;52.066;6.096;2024-01-15T07:55:19;6;5;
47741;PMS5003;33504;52.066;6.096;2024-01-15T07:57:46;8;6;
47741;PMS5003;33504;52.066;6.096;2024-01-15T08:00:13;6;6;
47741;PMS5003;33504;52.066;6.096;2024-01-15T08:02:41;3;3;
47741;PMS5003;33504;52.066;6.096;2024-01-15T08:05:08;7;7;
47741;PMS5003;33504;52.066;6.096;2024-01-15T08:07:35;4;4;
47741;PMS5003;33504;52.066;6.096;2024-01-15T08:10:02;4;4;
47741;PMS5003;33504;52.066;6.096;2024-01-15T08:12:29;6;6;
47741;PMS5003;33504;52.066;6.096;2024-01-15T08:14:56;8;7;
47741;PMS5003;33504;52.066;6.096;2024-01-15T08:17:23;6;6;
47741;PMS5003;33504;52.066;6.096;2024-01-15T08:19:50;5;5;
47741;PMS5003;33504;52.066;6.096;2024-01-15T08:22:17;6;5;
47741;PMS5003;33504;52.066;6.096;2024-01-15T08:24:44;6;6;
47741;PMS5003;33504;52.066;6.096;2024-01-15T08:27:11;4;4;
47741;PMS5003;33504;52.066;6.096;2024-01-15T08:29:38;8;7;
47741;PMS5003;33504;52.066;6.096;2024-01-15T08:32:05;6;6;
47741;PMS5003;33504;52.066;6.096;2024-01-15T08:34:32;8;8;
47741;PMS5003;33504;52.066;6.096;2024-01-15T08:36:59;7;6;
47741;PMS5003;33504;52.066;6.096;2024-01-15T08:39:26;5;4;
47741;PMS5003;33504;52.066;6.096;2024-01-15T08:41:53;6;5;
47741;PMS5003;33504;52.066;6.096;2024-01-15T08:44:20;6;5;
47741;PMS5003;33504;52.066;6.096;2024-01-15T08:46:47;3;3;
47741;PMS5003;33504;52.066;6.096;2024-01-15T08:49:14;5;5;
47741;PMS5003;33504;52.066;6.096;2024-01-15T08:51:41;6;5;
47741;PMS5003;33504;52.066;6.096;2024-01-15T08:54:09;4;4;
47741;PMS5003;33504;52.066;6.096;2024-01-15T08:56:35;7;5;
47741;PMS5003;33504;52.066;6.096;2024-01-15T08:59:02;6;6;
47741;PMS5003;33504;52.066;6.096;2024-01-15T09:01:29;5;4;
47741;PMS5003;33504;52.066;6.096;2024-01-15T09:03:56;5;5;
47741;PMS5003;33504;52.066;6.096;2024-01-15T09:06:23;6;6;
47741;PMS5003;33504;52.066;6.096;2024-01-15T09:08:51;7;7;
47741;PMS5003;33504;52.066;6.096;2024-01-15T09:11:17;7;6;
47741;PMS5003;33504;52.066;6.096;2024-01-15T09:13:45;9;9;
47741;PMS5003;33504;52.066;6.096;2024-01-15T09:16:12;7;7;
47741;PMS5003;33504;52.066;6.096;2024-01-15T09:18:39;7;7;
47741;PMS5003;33504;52.066;6.096;2024-01-15T09:21:06;7;6;
47741;PMS5003;33504;52.066;6.096;2024-01-15T09:23:34;6;5;
47741;PMS5003;33504;52.066;6.096;2024-01-15T09:26:01;7;7;
47741;PMS5003;33504;52.066;6.096;2024-01-15T09:28:28;5;4;
47741;PMS5003;33504;52.066;6.096;2024-01-15T09:30:55;6;6;
47741;PMS5003;33504;52.066;6.096;2024-01-15T09:33:22;8;6;
47741;PMS5003;33504;52.066;6.096;2024-01-15T09:35:49;7;6;
47741;PMS5003;33504;52.066;6.096;2024-01-15T09:38:16;5;5;
47741;PMS5003;33504;52.066;6.096;2024-01-15T09:40:43;10;10;
47741;PMS5003;33504;52.066;6.096;2024-01-15T09:43:12;6;4;
47741;PMS5003;33504;52.066;6.096;2024-01-15T09:45:41;6;6;
47741;PMS5003;33504;52.066;6.096;2024-01-15T09:48:08;7;6;
47741;PMS5003;33504;52.066;6.096;2024-01-15T09:50:35;5;5;
47741;PMS5003;33504;52.066;6.096;2024-01-15T09:53:03;6;6;
47741;PMS5003;33504;52.066;6.096;2024-01-15T09:55:32;7;5;
47741;PMS5003;33504;52.066;6.096;2024-01-15T09:58:00;6;6;
47741;PMS5003;33504;52.066;6.096;2024-01-15T10:00:28;8;8;
47741;PMS5003;33504;52.066;6.096;2024-01-15T10:02:56;8;6;
47741;PMS5003;33504;52.066;6.096;2024-01-15T10:05:23;7;7;
47741;PMS5003;33504;52.066;6.096;2024-01-15T10:07:50;9;7;
47741;PMS5003;33504;52.066;6.096;2024-01-15T10:10:20;8;7;
47741;PMS5003;33504;52.066;6.096;2024-01-15T10:12:47;10;9;
47741;PMS5003;33504;52.066;6.096;2024-01-15T10:15:14;10;9;
47741;PMS5003;33504;52.066;6.096;2024-01-15T10:17:41;7;7;
47741;PMS5003;33504;52.066;6.096;2024-01-15T10:20:09;7;6;
47741;PMS5003;33504;52.066;6.096;2024-01-15T10:22:39;6;6;
47741;PMS5003;33504;52.066;6.096;2024-01-15T10:25:09;9;9;
47741;PMS5003;33504;52.066;6.096;2024-01-15T10:27:37;7;7;
47741;PMS5003;33504;52.066;6.096;2024-01-15T10:30:04;8;6;
47741;PMS5003;33504;52.066;6.096;2024-01-15T10:32:31;6;5;
47741;PMS5003;33504;52.066;6.096;2024-01-15T10:34:58;4;4;
47741;PMS5003;33504;52.066;6.096;2024-01-15T10:37:25;4;3;
47741;PMS5003;33504;52.066;6.096;2024-01-15T10:39:53;6;5;
47741;PMS5003;33504;52.066;6.096;2024-01-15T10:42:20;6;6;
47741;PMS5003;33504;52.066;6.096;2024-01-15T10:44:46;5;4;
47741;PMS5003;33504;52.066;6.096;2024-01-15T10:47:13;3;3;
47741;PMS5003;33504;52.066;6.096;2024-01-15T10:49:42;4;3;
47741;PMS5003;33504;52.066;6.096;2024-01-15T10:52:10;2;2;
47741;PMS5003;33504;52.066;6.096;2024-01-15T10:54:37;2;2;
47741;PMS5003;33504;52.066;6.096;2024-01-15T10:57:05;2;2;
47741;PMS5003;33504;52.066;6.096;2024-01-15T10:59:33;2;2;
47741;PMS5003;33504;52.066;6.096;2024-01-15T11:02:00;3;2;
47741;PMS5003;33504;52.066;6.096;2024-01-15T11:04:28;2;1;
47741;PMS5003;33504;52.066;6.096;2024-01-15T11:06:58;2;2;
47741;PMS5003;33504;52.066;6.096;2024-01-15T11:09:28;3;3;
47741;PMS5003;33504;52.066;6.096;2024-01-15T11:12:06;3;2;
47741;PMS5003;33504;52.066;6.096;2024-01-15T11:14:35;3;3;
47741;PMS5003;33504;52.066;6.096;2024-01-15T11:17:04;2;2;
47741;PMS5003;33504;52.066;6.096;2024-01-15T11:19:35;3;3;
47741;PMS5003;33504;52.066;6.096;2024-01-15T11:22:03;4;3;
47741;PMS5003;33504;52.066;6.096;2024-01-15T11:24:34;2;2;
47741;PMS5003;33504;52.066;6.096;2024-01-15T11:27:02;2;2;
47741;PMS5003;33504;52.066;6.096;2024-01-15T11:29:30;2;2;
47741;PMS5003;33504;52.066;6.096;2024-01-15T11:31:59;2;2;
47741;PMS5003;33504;52.066;6.096;2024-01-15T11:34:49;3;3;
47741;PMS5003;33504;52.066;6.096;2024-01-15T11:37:18;2;2;
47741;PMS5003;33504;52.066;6.096;2024-01-15T11:39:47;2;2;
47741;PMS5003;33504;52.066;6.096;2024-01-15T11:42:14;3;2;
47741;PMS5003;33504;52.066;6.096;2024-01-15T11:44:41;3;2;
47741;PMS5003;33504;52.066;6.096;2024-01-15T11:47:10;3;3;
47741;PMS5003;33504;52.066;6.096;2024-01-15T11:49:45;1;1;
47741;PMS5003;33504;52.066;6.096;2024-01-15T11:52:26;1;1;
47741;PMS5003;33504;52.066;6.096;2024-01-15T11:55:00;3;2;
47741;PMS5003;33504;52.066;6.096;2024-01-15T11:57:40;2;2;
47741;PMS5003;33504;52.066;6.096;2024-01-15T12:00:12;1;1;
47741;PMS5003;33504;52.066;6.096;2024-01-15T12:02:40;2;2;
47741;PMS5003;33504;52.066;6.096;2024-01-15T12:05:08;3;2;
47741;PMS5003;33504;52.066;6.096;2024-01-15T12:07:35;3;2;
47741;PMS5003;33504;52.066;6.096;2024-01-15T12:10:02;2;2;
47741;PMS5003;33504;52.066;6.096;2024-01-15T12:12:37;1;1;
47741;PMS5003;33504;52.066;6.096;2024-01-15T12:15:14;1;1;
47741;PMS5003;33504;52.066;6.096;2024-01-15T12:17:41;3;2;
47741;PMS5003;33504;52.066;6.096;2024-01-15T12:20:08;3;2;
47741;PMS5003;33504;52.066;6.096;2024-01-15T12:22:36;1;1;
47741;PMS5003;33504;52.066;6.096;2024-01-15T12:25:04;4;3;
47741;PMS5003;33504;52.066;6.096;2024-01-15T12:27:32;2;2;
47741;PMS5003;33504;52.066;6.096;2024-01-15T12:30:00;2;1;
47741;PMS5003;33504;52.066;6.096;2024-01-15T12:32:27;4;1;
47741;PMS5003;33504;52.066;6.096;2024-01-15T12:34:55;2;2;
47741;PMS5003;33504;52.066;6.096;2024-01-15T12:37:22;1;1;
47741;PMS5003;33504;52.066;6.096;2024-01-15T12:39:51;1;1;
47741;PMS5003;33504;52.066;6.096;2024-01-15T12:42:18;1;1;
47741;PMS5003;33504;52.066;6.096;2024-01-15T12:44:46;3;3;
47741;PMS5003;33504;52.066;6.096;2024-01-15T12:47:12;2;2;
47741;PMS5003;33504;52.066;6.096;2024-01-15T12:49:39;3;2;
47741;PMS5003;33504;52.066;6.096;2024-01-15T12:52:08;7;7;
47741;PMS5003;33504;52.066;6.096;2024-01-15T12:54:35;3;2;
47741;PMS5003;33504;52.066;6.096;2024-01-15T12:57:02;2;2;
47741;PMS5003;33504;52.066;6.096;2024-01-15T12:59:30;6;4;
47741;PMS5003;33504;52.066;6.096;2024-01-15T13:01:57;5;4;
47741;PMS5003;33504;52.066;6.096;2024-01-15T13:04:24;1;1;
47741;PMS5003;33504;52.066;6.096;2024-01-15T13:06:51;2;1;
47741;PMS5003;33504;52.066;6.096;2024-01-15T13:09:18;2;2;
47741;PMS5003;33504;52.066;6.096;2024-01-15T13:11:45;1;1;
47741;PMS5003;33504;52.066;6.096;2024-01-15T13:14:13;0;0;
47741;PMS5003;33504;52.066;6.096;2024-01-15T13:16:41;0;0;
47741;PMS5003;33504;52.066;6.096;2024-01-15T13:19:09;2;0;
47741;PMS5003;33504;52.066;6.096;2024-01-15T13:21:36;1;1;
47741;PMS5003;33504;52.066;6.096;2024-01-15T13:24:04;1;1;
47741;PMS5003;33504;52.066;6.096;2024-01-15T13:26:32;0;0;
47741;PMS5003;33504;52.066;6.096;2024-01-15T13:28:59;0;0;
47741;PMS5003;33504;52.066;6.096;2024-01-15T13:31:26;2;2;
47741;PMS5003;33504;52.066;6.096;2024-01-15T13:33:53;1;1;
47741;PMS5003;33504;52.066;6.096;2024-01-15T13:36:20;0;0;
47741;PMS5003;33504;52.066;6.096;2024-01-15T13:38:47;1;1;
47741;PMS5003;33504;52.066;6.096;2024-01-15T13:41:14;1;1;
47741;PMS5003;33504;52.066;6.096;2024-01-15T13:43:41;0;0;
47741;PMS5003;33504;52.066;6.096;2024-01-15T13:46:08;0;0;
47741;PMS5003;33504;52.066;6.096;2024-01-15T13:48:35;2;1;
47741;PMS5003;33504;52.066;6.096;2024-01-15T13:51:02;1;1;
47741;PMS5003;33504;52.066;6.096;2024-01-15T13:53:30;2;1;
47741;PMS5003;33504;52.066;6.096;2024-01-15T13:55:56;0;0;
47741;PMS5003;33504;52.066;6.096;2024-01-15T13:58:23;1;1;
47741;PMS5003;33504;52.066;6.096;2024-01-15T14:00:50;1;0;
47741;PMS5003;33504;52.066;6.096;2024-01-15T14:03:17;0;0;
47741;PMS5003;33504;52.066;6.096;2024-01-15T14:05:44;1;1;
47741;PMS5003;33504;52.066;6.096;2024-01-15T14:08:12;3;3;
47741;PMS5003;33504;52.066;6.096;2024-01-15T14:10:38;1;1;
47741;PMS5003;33504;52.066;6.096;2024-01-15T14:13:05;1;0;
47741;PMS5003;33504;52.066;6.096;2024-01-15T14:15:32;1;1;
47741;PMS5003;33504;52.066;6.096;2024-01-15T14:17:59;0;0;
47741;PMS5003;33504;52.066;6.096;2024-01-15T14:20:26;2;1;
47741;PMS5003;33504;52.066;6.096;2024-01-15T14:22:53;2;1;
47741;PMS5003;33504;52.066;6.096;2024-01-15T14:25:20;1;1;
47741;PMS5003;33504;52.066;6.096;2024-01-15T14:27:48;2;2;
47741;PMS5003;33504;52.066;6.096;2024-01-15T14:30:15;4;3;
47741;PMS5003;33504;52.066;6.096;2024-01-15T14:32:42;3;2;
47741;PMS5003;33504;52.066;6.096;2024-01-15T14:35:09;4;3;
47741;PMS5003;33504;52.066;6.096;2024-01-15T14:37:36;2;2;
47741;PMS5003;33504;52.066;6.096;2024-01-15T14:40:04;5;5;
47741;PMS5003;33504;52.066;6.096;2024-01-15T14:42:31;1;1;
47741;PMS5003;33504;52.066;6.096;2024-01-15T14:44:58;3;2;
47741;PMS5003;33504;52.066;6.096;2024-01-15T14:47:25;1;1;
47741;PMS5003;33504;52.066;6.096;2024-01-15T14:49:52;1;1;
47741;PMS5003;33504;52.066;6.096;2024-01-15T14:52:19;1;1;
47741;PMS5003;33504;52.066;6.096;2024-01-15T14:54:46;2;2;
47741;PMS5003;33504;52.066;6.096;2024-01-15T14:57:13;1;1;
47741;PMS5003;33504;52.066;6.096;2024-01-15T14:59:40;1;0;
47741;PMS5003;33504;52.066;6.096;2024-01-15T15:02:07;1;1;
47741;PMS5003;33504;52.066;6.096;2024-01-15T15:04:34;2;1;
47741;PMS5003;33504;52.066;6.096;2024-01-15T15:07:01;1;1;
47741;PMS5003;33504;52.066;6.096;2024-01-15T15:09:28;2;2;
47741;PMS5003;33504;52.066;6.096;2024-01-15T15:11:55;2;2;
47741;PMS5003;33504;52.066;6.096;2024-01-15T15:14:22;2;1;
47741;PMS5003;33504;52.066;6.096;2024-01-15T15:16:49;2;2;
47741;PMS5003;33504;52.066;6.096;2024-01-15T15:19:16;3;3;
47741;PMS5003;33504;52.066;6.096;2024-01-15T15:21:43;1;1;
47741;PMS5003;33504;52.066;6.096;2024-01-15T15:24:10;5;5;
47741;PMS5003;33504;52.066;6.096;2024-01-15T15:26:37;7;6;
47741;PMS5003;33504;52.066;6.096;2024-01-15T15:29:04;9;7;
47741;PMS5003;33504;52.066;6.096;2024-01-15T15:31:31;6;5;
47741;PMS5003;33504;52.066;6.096;2024-01-15T15:33:58;5;3;
47741;PMS5003;33504;52.066;6.096;2024-01-15T15:36:25;6;6;
47741;PMS5003;33504;52.066;6.096;2024-01-15T15:38:52;5;4;
47741;PMS5003;33504;52.066;6.096;2024-01-15T15:41:19;5;4;
47741;PMS5003;33504;52.066;6.096;2024-01-15T15:43:46;4;4;
47741;PMS5003;33504;52.066;6.096;2024-01-15T15:46:14;2;2;
47741;PMS5003;33504;52.066;6.096;2024-01-15T15:48:41;3;2;
47741;PMS5003;33504;52.066;6.096;2024-01-15T15:51:07;2;2;
47741;PMS5003;33504;52.066;6.096;2024-01-15T15:53:35;3;2;
47741;PMS5003;33504;52.066;6.096;2024-01-15T15:56:04;1;1;
47741;PMS5003;33504;52.066;6.096;2024-01-15T15:58:31;7;6;
47741;PMS5003;33504;52.066;6.096;2024-01-15T16:00:58;4;3;
47741;PMS5003;33504;52.066;6.096;2024-01-15T16:03:25;3;3;
47741;PMS5003;33504;52.066;6.096;2024-01-15T16:05:52;3;2;
47741;PMS5003;33504;52.066;6.096;2024-01-15T16:08:19;3;2;
47741;PMS5003;33504;52.066;6.096;2024-01-15T16:10:46;3;3;
47741;PMS5003;33504;52.066;6.096;2024-01-15T16:13:13;4;3;
47741;PMS5003;33504;52.066;6.096;2024-01-15T16:15:40;2;2;
47741;PMS5003;33504;52.066;6.096;2024-01-15T16:18:07;3;3;
47741;PMS5003;33504;52.066;6.096;2024-01-15T16:20:34;8;8;
47741;PMS5003;33504;52.066;6.096;2024-01-15T16:23:01;4;4;
47741;PMS5003;33504;52.066;6.096;2024-01-15T16:25:28;5;4;
47741;PMS5003;33504;52.066;6.096;2024-01-15T16:27:55;6;4;
47741;PMS5003;33504;52.066;6.096;2024-01-15T16:30:22;3;3;
47741;PMS5003;33504;52.066;6.096;2024-01-15T16:32:49;5;4;
47741;PMS5003;33504;52.066;6.096;2024-01-15T16:35:16;4;4;
47741;PMS5003;33504;52.066;6.096;2024-01-15T16:37:44;3;3;
47741;PMS5003;33504;52.066;6.096;2024-01-15T16:40:11;6;4;
47741;PMS5003;33504;52.066;6.096;2024-01-15T16:42:39;5;4;
47741;PMS5003;33504;52.066;6.096;2024-01-15T16:45:06;6;5;
47741;PMS5003;33504;52.066;6.096;2024-01-15T16:47:34;13;11;
47741;PMS5003;33504;52.066;6.096;2024-01-15T16:50:00;6;4;
47741;PMS5003;33504;52.066;6.096;2024-01-15T16:52:27;5;5;